createdAt,value
2023-04-21T00:00:07.648Z,32.70
2023-04-21T00:01:07.662Z,32.60
2023-04-21T00:02:07.690Z,32.79
2023-04-21T00:03:07.860Z,32.79
2023-04-21T00:04:07.859Z,32.79
2023-04-21T00:05:07.971Z,32.79
2023-04-21T00:06:07.661Z,32.70
2023-04-21T00:07:07.662Z,32.70
2023-04-21T00:08:07.658Z,32.51
2023-04-21T00:09:07.668Z,32.51
2023-04-21T00:10:07.706Z,32.79
2023-04-21T00:11:07.677Z,32.70
2023-04-21T00:12:07.680Z,32.70
2023-04-21T00:13:07.674Z,32.79
2023-04-21T00:14:07.679Z,32.70
2023-04-21T00:15:07.707Z,32.70
2023-04-21T00:16:07.732Z,32.79
2023-04-21T00:17:07.677Z,32.70
2023-04-21T00:18:07.769Z,32.60
2023-04-21T00:19:07.724Z,32.89
2023-04-21T00:20:07.682Z,32.70
2023-04-21T00:21:07.680Z,32.79
2023-04-21T00:22:07.837Z,32.60
2023-04-21T00:23:07.683Z,32.70
2023-04-21T00:24:07.692Z,32.60
2023-04-21T00:25:07.690Z,32.60
2023-04-21T00:26:07.694Z,32.89
2023-04-21T00:27:07.696Z,32.79
2023-04-21T00:28:07.695Z,32.60
2023-04-21T00:29:07.716Z,32.79
2023-04-21T00:30:07.699Z,32.51
2023-04-21T00:31:07.857Z,32.60
2023-04-21T00:32:07.714Z,32.70
2023-04-21T00:33:07.703Z,32.79
2023-04-21T00:34:07.708Z,32.79
2023-04-21T00:35:07.711Z,32.79
2023-04-21T00:36:07.712Z,32.99
2023-04-21T00:37:07.723Z,32.89
2023-04-21T00:38:07.724Z,32.99
2023-04-21T00:39:07.717Z,32.60
2023-04-21T00:40:07.717Z,32.99
2023-04-21T00:41:07.726Z,32.70
2023-04-21T00:42:07.719Z,32.79
2023-04-21T00:43:07.774Z,32.60
2023-04-21T00:44:07.750Z,32.70
2023-04-21T00:45:07.731Z,32.79
2023-04-21T00:46:07.733Z,32.70
2023-04-21T00:47:07.784Z,32.60
2023-04-21T00:48:07.828Z,33.09
2023-04-21T00:49:07.743Z,32.70
2023-04-21T00:50:07.750Z,32.99
2023-04-21T00:51:07.741Z,32.89
2023-04-21T00:52:07.750Z,32.99
2023-04-21T00:53:07.757Z,32.79
2023-04-21T00:54:07.759Z,32.79
2023-04-21T00:55:07.748Z,32.70
2023-04-21T00:56:07.751Z,32.70
2023-04-21T00:57:07.756Z,33.09
2023-04-21T00:58:07.759Z,32.41
2023-04-21T00:59:07.763Z,32.70
2023-04-21T01:00:07.764Z,32.41
2023-04-21T01:01:07.795Z,32.41
2023-04-21T01:02:07.945Z,32.21
2023-04-21T01:03:08.110Z,32.21
2023-04-21T01:04:07.945Z,32.31
2023-04-21T01:05:07.773Z,32.03
2023-04-21T01:06:07.771Z,32.12
2023-04-21T01:07:07.799Z,32.12
2023-04-21T01:08:07.784Z,32.21
2023-04-21T01:09:07.775Z,32.31
2023-04-21T01:10:07.793Z,32.03
2023-04-21T01:11:07.778Z,32.12
2023-04-21T01:12:07.789Z,32.31
2023-04-21T01:13:07.782Z,32.31
2023-04-21T01:14:07.789Z,31.83
2023-04-21T01:15:07.793Z,32.21
2023-04-21T01:16:07.802Z,32.12
2023-04-21T01:17:07.915Z,32.31
2023-04-21T01:18:07.825Z,32.31
2023-04-21T01:19:07.856Z,32.03
2023-04-21T01:20:07.803Z,32.31
2023-04-21T01:21:07.803Z,32.12
2023-04-21T01:22:07.810Z,31.63
2023-04-21T01:23:07.837Z,31.73
2023-04-21T01:24:07.823Z,31.83
2023-04-21T01:25:07.807Z,31.93
2023-04-21T01:26:07.811Z,31.93
2023-04-21T01:27:07.813Z,31.83
2023-04-21T01:28:07.816Z,31.63
2023-04-21T01:29:07.824Z,32.03
2023-04-21T01:30:07.830Z,31.83
2023-04-21T01:31:07.817Z,31.83
2023-04-21T01:32:07.981Z,31.73
2023-04-21T01:33:07.870Z,31.63
2023-04-21T01:34:07.830Z,31.83
2023-04-21T01:35:07.869Z,31.73
2023-04-21T01:36:07.836Z,31.73
2023-04-21T01:37:07.838Z,31.73
2023-04-21T01:38:07.845Z,31.63
2023-04-21T01:39:07.840Z,31.63
2023-04-21T01:40:07.837Z,31.63
2023-04-21T01:41:07.842Z,31.54
2023-04-21T01:42:07.845Z,31.63
2023-04-21T01:43:07.839Z,31.83
2023-04-21T01:44:07.852Z,31.54
2023-04-21T01:45:07.863Z,31.73
2023-04-21T01:46:07.980Z,31.63
2023-04-21T01:47:07.856Z,31.63
2023-04-21T01:48:07.895Z,31.83
2023-04-21T01:49:07.874Z,31.54
2023-04-21T01:50:07.870Z,31.63
2023-04-21T01:51:07.911Z,31.83
2023-04-21T01:52:07.870Z,31.73
2023-04-21T01:53:07.873Z,31.45
2023-04-21T01:54:07.864Z,31.63
2023-04-21T01:55:07.893Z,31.63
2023-04-21T01:56:07.869Z,31.54
2023-04-21T01:57:08.002Z,31.54
2023-04-21T01:58:07.876Z,31.63
2023-04-21T01:59:07.872Z,31.63
2023-04-21T02:00:07.884Z,31.63
2023-04-21T02:01:07.950Z,31.63
2023-04-21T02:02:08.037Z,31.63
2023-04-21T02:03:08.089Z,31.63
2023-04-21T02:04:08.108Z,31.54
2023-04-21T02:05:07.893Z,31.63
2023-04-21T02:06:07.893Z,31.63
2023-04-21T02:07:07.915Z,31.54
2023-04-21T02:08:07.904Z,31.54
2023-04-21T02:09:07.915Z,31.35
2023-04-21T02:10:07.894Z,31.54
2023-04-21T02:11:07.892Z,31.63
2023-04-21T02:12:07.910Z,31.54
2023-04-21T02:13:07.904Z,31.63
2023-04-21T02:14:07.913Z,31.54
2023-04-21T02:15:07.910Z,31.54
2023-04-21T02:16:13.794Z,31.54
2023-04-21T02:17:07.911Z,31.63
2023-04-21T02:18:07.972Z,31.63
2023-04-21T02:19:07.912Z,31.35
2023-04-21T02:20:07.913Z,31.63
2023-04-21T02:21:07.928Z,31.54
2023-04-21T02:22:07.908Z,31.35
2023-04-21T02:23:07.937Z,31.45
2023-04-21T02:24:07.914Z,31.45
2023-04-21T02:25:07.919Z,31.35
2023-04-21T02:26:07.939Z,31.35
2023-04-21T02:27:07.931Z,31.35
2023-04-21T02:28:07.933Z,31.35
2023-04-21T02:29:07.946Z,31.54
2023-04-21T02:30:07.953Z,31.45
2023-04-21T02:31:07.944Z,31.54
2023-04-21T02:33:07.995Z,31.54
2023-04-21T02:34:07.938Z,31.62
2023-04-21T02:35:07.952Z,31.45
2023-04-21T02:36:07.953Z,31.45
2023-04-21T02:37:07.946Z,31.54
2023-04-21T02:38:07.947Z,31.35
2023-04-21T02:39:07.966Z,31.35
2023-04-21T02:40:07.963Z,31.45
2023-04-21T02:41:07.951Z,31.35
2023-04-21T02:42:07.959Z,31.54
2023-04-21T02:43:07.951Z,31.45
2023-04-21T02:44:07.961Z,31.35
2023-04-21T02:45:07.958Z,31.54
2023-04-21T02:46:08.109Z,31.35
2023-04-21T02:47:08.265Z,31.25
2023-04-21T02:48:07.973Z,31.45
2023-04-21T02:49:07.990Z,31.54
2023-04-21T02:50:07.966Z,31.45
2023-04-21T02:51:07.968Z,31.35
2023-04-21T02:52:07.968Z,31.45
2023-04-21T02:53:07.978Z,31.35
2023-04-21T02:54:08.006Z,31.54
2023-04-21T02:55:08.004Z,31.35
2023-04-21T02:56:07.984Z,31.45
2023-04-21T02:57:07.993Z,31.54
2023-04-21T02:58:07.980Z,31.25
2023-04-21T02:59:07.986Z,31.43
2023-04-21T03:00:07.999Z,31.35
2023-04-21T03:01:08.009Z,31.35
2023-04-21T03:02:08.058Z,31.45
2023-04-21T03:03:08.432Z,31.35
2023-04-21T03:04:08.096Z,31.35
2023-04-21T03:05:07.998Z,31.35
2023-04-21T03:06:07.995Z,31.35
2023-04-21T03:07:07.997Z,31.45
2023-04-21T03:08:08.030Z,31.25
2023-04-21T03:09:08.004Z,31.25
2023-04-21T03:10:07.995Z,31.45
2023-04-21T03:11:08.025Z,31.45
2023-04-21T03:12:08.009Z,31.35
2023-04-21T03:13:08.317Z,31.35
2023-04-21T03:14:08.004Z,31.25
2023-04-21T03:15:08.011Z,31.25
2023-04-21T03:16:08.039Z,31.25
2023-04-21T03:17:08.029Z,31.35
2023-04-21T03:18:08.044Z,31.35
2023-04-21T03:19:08.166Z,31.24
2023-04-21T03:20:08.044Z,31.25
2023-04-21T03:21:08.021Z,31.24
2023-04-21T03:22:08.035Z,31.45
2023-04-21T03:23:08.027Z,31.24
2023-04-21T03:24:08.030Z,31.33
2023-04-21T03:25:08.075Z,31.35
2023-04-21T03:26:08.030Z,31.25
2023-04-21T03:27:10.422Z,31.25
2023-04-21T03:28:08.043Z,31.14
2023-04-21T03:29:08.040Z,31.24
2023-04-21T03:30:08.042Z,31.25
2023-04-21T03:31:08.050Z,31.25
2023-04-21T03:32:08.076Z,31.35
2023-04-21T03:33:08.115Z,31.25
2023-04-21T03:34:08.044Z,31.25
2023-04-21T03:35:08.202Z,31.25
2023-04-21T03:36:08.073Z,31.45
2023-04-21T03:37:08.067Z,31.45
2023-04-21T03:38:08.052Z,31.45
2023-04-21T03:39:19.319Z,31.43
2023-04-21T03:40:08.054Z,31.35
2023-04-21T03:41:08.064Z,31.45
2023-04-21T03:42:08.057Z,31.54
2023-04-21T03:43:08.087Z,31.45
2023-04-21T03:44:08.067Z,31.45
2023-04-21T03:45:08.063Z,31.35
2023-04-21T03:46:08.171Z,31.45
2023-04-21T03:47:08.075Z,31.45
2023-04-21T03:48:08.099Z,31.43
2023-04-21T03:49:08.069Z,31.45
2023-04-21T03:50:08.086Z,31.24
2023-04-21T03:51:08.085Z,31.15
2023-04-21T03:52:08.095Z,31.25
2023-04-21T03:53:08.078Z,31.45
2023-04-21T03:54:08.083Z,31.45
2023-04-21T03:55:08.085Z,31.25
2023-04-21T03:56:08.085Z,31.45
2023-04-21T03:57:08.083Z,31.45
2023-04-21T03:58:08.096Z,31.43
2023-04-21T03:59:08.124Z,31.25
2023-04-21T04:00:08.094Z,31.54
2023-04-21T04:01:08.090Z,31.73
2023-04-21T04:02:08.246Z,31.62
2023-04-21T04:03:08.210Z,31.62
2023-04-21T04:04:08.333Z,31.81
2023-04-21T04:05:08.169Z,32.29
2023-04-21T04:06:08.102Z,32.10
2023-04-21T04:07:08.120Z,32.49
2023-04-21T04:08:08.105Z,33.07
2023-04-21T04:09:08.110Z,32.87
2023-04-21T04:10:08.102Z,33.07
2023-04-21T04:11:08.123Z,32.95
2023-04-21T04:12:09.463Z,32.67
2023-04-21T04:13:08.115Z,32.97
2023-04-21T04:14:08.116Z,32.29
2023-04-21T04:15:08.147Z,32.10
2023-04-21T04:16:08.219Z,32.20
2023-04-21T04:17:08.124Z,32.10
2023-04-21T04:18:08.181Z,31.81
2023-04-21T04:19:08.143Z,31.91
2023-04-21T04:20:08.129Z,31.73
2023-04-21T04:21:08.135Z,31.73
2023-04-21T04:22:08.126Z,31.54
2023-04-21T04:23:08.139Z,31.62
2023-04-21T04:24:08.135Z,31.72
2023-04-21T04:25:08.134Z,31.63
2023-04-21T04:26:08.136Z,31.83
2023-04-21T04:27:08.140Z,31.45
2023-04-21T04:28:08.139Z,31.63
2023-04-21T04:29:08.142Z,31.62
2023-04-21T04:30:08.147Z,31.35
2023-04-21T04:31:08.205Z,31.45
2023-04-21T04:32:08.148Z,31.63
2023-04-21T04:33:08.200Z,31.45
2023-04-21T04:34:08.158Z,31.35
2023-04-21T04:35:08.190Z,31.63
2023-04-21T04:36:08.162Z,31.93
2023-04-21T04:37:08.185Z,32.60
2023-04-21T04:38:08.157Z,32.59
2023-04-21T04:39:09.455Z,32.60
2023-04-21T04:40:08.161Z,32.12
2023-04-21T04:41:08.162Z,32.31
2023-04-21T04:42:08.168Z,31.93
2023-04-21T04:43:08.167Z,32.21
2023-04-21T04:44:08.169Z,32.03
2023-04-21T04:45:08.172Z,31.73
2023-04-21T04:46:08.202Z,32.41
2023-04-21T04:47:08.234Z,32.03
2023-04-21T04:48:08.178Z,32.12
2023-04-21T04:49:08.172Z,32.41
2023-04-21T04:50:08.185Z,32.03
2023-04-21T04:51:08.186Z,31.83
2023-04-21T04:52:08.341Z,32.12
2023-04-21T04:53:08.173Z,32.89
2023-04-21T04:54:08.184Z,33.09
2023-04-21T04:55:08.213Z,32.99
2023-04-21T04:56:08.202Z,32.89
2023-04-21T04:57:08.188Z,32.60
2023-04-21T04:58:08.188Z,32.79
2023-04-21T04:59:08.192Z,33.18
2023-04-21T05:00:08.200Z,32.89
2023-04-21T05:01:08.213Z,33.37
2023-04-21T05:02:08.334Z,33.09
2023-04-21T05:03:08.427Z,32.89
2023-04-21T05:04:08.417Z,33.09
2023-04-21T05:05:08.385Z,32.99
2023-04-21T05:06:08.212Z,33.09
2023-04-21T05:07:08.220Z,33.18
2023-04-21T05:08:08.210Z,33.28
2023-04-21T05:09:08.210Z,32.99
2023-04-21T05:10:08.214Z,33.57
2023-04-21T05:11:08.215Z,33.76
2023-04-21T05:12:08.271Z,33.45
2023-04-21T05:13:08.225Z,33.71
2023-04-21T05:14:08.220Z,35.31
2023-04-21T05:15:08.221Z,35.70
2023-04-21T05:16:08.244Z,35.33
2023-04-21T05:17:08.232Z,35.44
2023-04-21T05:18:08.237Z,35.27
2023-04-21T05:19:08.252Z,34.58
2023-04-21T05:20:08.250Z,35.33
2023-04-21T05:21:08.255Z,36.35
2023-04-21T05:22:08.235Z,36.16
2023-04-21T05:23:08.240Z,35.52
2023-04-21T05:24:08.234Z,35.62
2023-04-21T05:25:08.235Z,35.44
2023-04-21T05:26:08.243Z,34.59
2023-04-21T05:27:08.260Z,34.40
2023-04-21T05:28:08.241Z,34.11
2023-04-21T05:29:08.251Z,33.84
2023-04-21T05:30:08.250Z,33.74
2023-04-21T05:31:08.262Z,33.84
2023-04-21T05:32:08.355Z,33.74
2023-04-21T05:33:08.261Z,33.74
2023-04-21T05:34:08.254Z,33.74
2023-04-21T05:35:08.293Z,33.74
2023-04-21T05:36:08.268Z,33.45
2023-04-21T05:37:08.258Z,33.17
2023-04-21T05:38:08.259Z,33.84
2023-04-21T05:39:08.260Z,33.55
2023-04-21T05:40:08.261Z,33.55
2023-04-21T05:41:08.260Z,33.73
2023-04-21T05:42:08.265Z,34.94
2023-04-21T05:43:08.268Z,35.87
2023-04-21T05:44:08.271Z,37.12
2023-04-21T05:45:08.269Z,37.10
2023-04-21T05:46:08.345Z,37.59
2023-04-21T05:47:08.275Z,37.77
2023-04-21T05:48:08.429Z,38.07
2023-04-21T05:49:08.280Z,38.35
2023-04-21T05:50:08.282Z,38.45
2023-04-21T05:51:08.308Z,37.95
2023-04-21T05:52:08.281Z,37.87
2023-04-21T05:53:08.279Z,38.16
2023-04-21T05:54:08.284Z,38.45
2023-04-21T05:55:08.283Z,38.16
2023-04-21T05:56:08.284Z,38.81
2023-04-21T05:57:08.286Z,38.62
2023-04-21T05:58:08.282Z,38.91
2023-04-21T05:59:08.285Z,37.97
2023-04-21T06:00:08.292Z,37.87
2023-04-21T06:01:08.289Z,37.87
2023-04-21T06:02:08.427Z,38.07
2023-04-21T06:03:08.419Z,37.87
2023-04-21T06:04:08.509Z,38.07
2023-04-21T06:05:08.476Z,37.77
2023-04-21T06:06:08.294Z,38.07
2023-04-21T06:07:08.332Z,38.84
2023-04-21T06:08:08.304Z,38.45
2023-04-21T06:09:08.300Z,38.26
2023-04-21T06:10:08.304Z,37.97
2023-04-21T06:11:08.316Z,38.54
2023-04-21T06:12:08.302Z,38.26
2023-04-21T06:13:08.301Z,38.26
2023-04-21T06:14:08.300Z,37.87
2023-04-21T06:15:08.303Z,38.26
2023-04-21T06:16:08.372Z,38.81
2023-04-21T06:17:08.325Z,38.91
2023-04-21T06:18:08.328Z,38.54
2023-04-21T06:19:08.320Z,38.07
2023-04-21T06:20:08.320Z,37.77
2023-04-21T06:21:08.325Z,37.77
2023-04-21T06:22:08.329Z,38.16
2023-04-21T06:23:08.349Z,38.07
2023-04-21T06:24:08.340Z,37.77
2023-04-21T06:25:08.321Z,38.07
2023-04-21T06:26:08.321Z,37.87
2023-04-21T06:27:08.478Z,37.77
2023-04-21T06:28:08.326Z,37.68
2023-04-21T06:29:08.336Z,38.07
2023-04-21T06:30:08.330Z,37.97
2023-04-21T06:31:09.250Z,37.87
2023-04-21T06:32:08.496Z,37.97
2023-04-21T06:33:08.379Z,37.97
2023-04-21T06:34:08.336Z,38.26
2023-04-21T06:35:08.334Z,38.16
2023-04-21T06:36:08.335Z,37.97
2023-04-21T06:37:08.327Z,38.07
2023-04-21T06:38:08.333Z,38.26
2023-04-21T06:39:08.375Z,37.97
2023-04-21T06:40:08.341Z,38.07
2023-04-21T06:41:08.340Z,38.16
2023-04-21T06:42:08.336Z,38.07
2023-04-21T06:43:08.340Z,37.68
2023-04-21T06:44:08.338Z,38.07
2023-04-21T06:45:08.337Z,38.93
2023-04-21T06:46:08.342Z,38.84
2023-04-21T06:47:08.398Z,38.64
2023-04-21T06:48:08.372Z,38.84
2023-04-21T06:49:08.340Z,38.93
2023-04-21T06:50:08.347Z,38.28
2023-04-21T06:51:08.341Z,37.87
2023-04-21T06:52:08.352Z,37.68
2023-04-21T06:53:08.366Z,37.97
2023-04-21T06:54:08.362Z,37.87
2023-04-21T06:55:08.428Z,37.68
2023-04-21T06:56:08.351Z,37.39
2023-04-21T06:57:08.367Z,37.77
2023-04-21T06:58:08.349Z,37.79
2023-04-21T06:59:08.367Z,37.79
2023-04-21T07:00:08.357Z,37.99
2023-04-21T07:01:08.402Z,38.09
2023-04-21T07:02:08.392Z,38.66
2023-04-21T07:03:08.475Z,38.18
2023-04-21T07:04:08.417Z,37.51
2023-04-21T07:05:08.357Z,37.02
2023-04-21T07:06:08.351Z,37.51
2023-04-21T07:07:08.355Z,37.43
2023-04-21T07:08:08.367Z,37.62
2023-04-21T07:09:08.366Z,37.62
2023-04-21T07:10:08.361Z,36.27
2023-04-21T07:11:08.398Z,36.56
2023-04-21T07:12:08.363Z,36.56
2023-04-21T07:13:10.045Z,36.95
2023-04-21T07:14:08.364Z,36.66
2023-04-21T07:15:08.363Z,36.66
2023-04-21T07:16:08.422Z,36.85
2023-04-21T07:17:08.406Z,36.95
2023-04-21T07:18:08.445Z,36.95
2023-04-21T07:19:08.366Z,38.20
2023-04-21T07:20:08.381Z,37.04
2023-04-21T07:21:08.372Z,36.47
2023-04-21T07:22:08.377Z,36.37
2023-04-21T07:23:08.370Z,36.47
2023-04-21T07:24:08.406Z,36.18
2023-04-21T07:25:08.396Z,36.18
2023-04-21T07:26:08.405Z,36.27
2023-04-21T07:27:08.398Z,36.37
2023-04-21T07:28:08.392Z,35.99
2023-04-21T07:29:08.372Z,36.08
2023-04-21T07:30:08.385Z,36.18
2023-04-21T07:31:08.414Z,36.08
2023-04-21T07:32:08.380Z,36.18
2023-04-21T07:33:08.422Z,36.18
2023-04-21T07:34:08.384Z,35.99
2023-04-21T07:35:08.389Z,35.99
2023-04-21T07:36:08.384Z,35.99
2023-04-21T07:37:08.393Z,35.50
2023-04-21T07:38:08.396Z,36.37
2023-04-21T07:39:08.384Z,35.50
2023-04-21T07:40:08.390Z,35.50
2023-04-21T07:41:08.385Z,35.60
2023-04-21T07:42:08.458Z,35.70
2023-04-21T07:43:08.415Z,35.50
2023-04-21T07:44:08.386Z,35.50
2023-04-21T07:45:08.387Z,35.22
2023-04-21T07:46:08.711Z,35.60
2023-04-21T07:47:08.399Z,35.41
2023-04-21T07:48:08.448Z,35.50
2023-04-21T07:49:08.398Z,35.41
2023-04-21T07:50:08.658Z,35.12
2023-04-21T07:51:08.404Z,35.60
2023-04-21T07:52:08.394Z,35.30
2023-04-21T07:53:08.401Z,35.12
2023-04-21T07:54:08.415Z,34.92
2023-04-21T07:55:08.397Z,35.41
2023-04-21T07:56:08.402Z,34.92
2023-04-21T07:57:08.396Z,35.39
2023-04-21T07:58:08.402Z,35.02
2023-04-21T07:59:08.422Z,35.02
2023-04-21T08:00:08.432Z,35.41
2023-04-21T08:01:08.412Z,35.41
2023-04-21T08:02:08.547Z,35.50
2023-04-21T08:03:08.672Z,35.02
2023-04-21T08:04:08.535Z,34.74
2023-04-21T08:05:08.722Z,35.31
2023-04-21T08:06:08.509Z,34.54
2023-04-21T08:07:08.917Z,34.74
2023-04-21T08:08:08.425Z,34.74
2023-04-21T08:09:08.435Z,34.54
2023-04-21T08:10:08.407Z,34.74
2023-04-21T08:11:10.767Z,34.64
2023-04-21T08:12:08.412Z,34.83
2023-04-21T08:13:08.438Z,34.45
2023-04-21T08:14:08.464Z,35.02
2023-04-21T08:15:08.689Z,34.45
2023-04-21T08:16:08.449Z,35.50
2023-04-21T08:17:08.760Z,35.60
2023-04-21T08:18:08.508Z,35.33
2023-04-21T08:19:08.420Z,35.41
2023-04-21T08:20:08.419Z,35.12
2023-04-21T08:21:08.435Z,34.74
2023-04-21T08:22:08.453Z,34.54
2023-04-21T08:23:08.512Z,34.83
2023-04-21T08:24:08.456Z,34.56
2023-04-21T08:25:08.424Z,34.84
2023-04-21T08:26:08.432Z,34.75
2023-04-21T08:27:08.435Z,34.37
2023-04-21T08:28:08.448Z,34.17
2023-04-21T08:29:08.448Z,33.69
2023-04-21T08:30:08.432Z,33.59
2023-04-21T08:31:08.487Z,33.69
2023-04-21T08:32:08.849Z,33.69
2023-04-21T08:33:08.508Z,33.31
2023-04-21T08:34:08.458Z,33.40
2023-04-21T08:35:08.437Z,33.50
2023-04-21T08:36:18.139Z,33.40
2023-04-21T08:37:08.437Z,33.02
2023-04-21T08:38:08.440Z,33.12
2023-04-21T08:39:08.448Z,32.73
2023-04-21T08:40:08.437Z,32.25
2023-04-21T08:41:08.439Z,32.54
2023-04-21T08:42:08.439Z,32.64
2023-04-21T08:43:08.443Z,32.92
2023-04-21T08:44:08.445Z,32.64
2023-04-21T08:45:08.451Z,32.44
2023-04-21T08:46:08.515Z,32.73
2023-04-21T08:47:08.467Z,32.92
2023-04-21T08:48:08.472Z,32.82
2023-04-21T08:49:08.449Z,32.73
2023-04-21T08:50:08.449Z,32.64
2023-04-21T08:51:08.454Z,32.84
2023-04-21T08:52:08.454Z,32.17
2023-04-21T08:53:08.453Z,31.96
2023-04-21T08:54:08.459Z,31.67
2023-04-21T08:55:08.461Z,31.48
2023-04-21T08:56:11.433Z,32.06
2023-04-21T08:57:15.087Z,32.25
2023-04-21T08:58:08.469Z,32.75
2023-04-21T08:59:08.461Z,34.29
2023-04-21T09:00:08.510Z,33.13
2023-04-21T09:01:08.575Z,32.75
2023-04-21T09:02:08.552Z,32.07
2023-04-21T09:03:16.175Z,31.21
2023-04-21T09:04:08.666Z,31.59
2023-04-21T09:05:08.741Z,31.40
2023-04-21T09:06:09.401Z,31.30
2023-04-21T09:07:08.533Z,31.59
2023-04-21T09:08:08.482Z,31.49
2023-04-21T09:09:08.475Z,31.49
2023-04-21T09:10:08.490Z,31.30
2023-04-21T09:11:08.491Z,31.49
2023-04-21T09:12:08.481Z,31.30
2023-04-21T09:13:08.484Z,32.17
2023-04-21T09:14:08.486Z,32.67
2023-04-21T09:15:08.483Z,33.05
2023-04-21T09:16:08.830Z,32.95
2023-04-21T09:17:08.501Z,33.53
2023-04-21T09:18:08.514Z,34.21
2023-04-21T09:19:08.579Z,33.92
2023-04-21T09:20:08.496Z,34.90
2023-04-21T09:21:08.495Z,34.90
2023-04-21T09:22:08.494Z,35.00
2023-04-21T09:23:08.497Z,35.19
2023-04-21T09:24:08.499Z,35.48
2023-04-21T09:25:08.515Z,35.67
2023-04-21T09:26:08.500Z,35.28
2023-04-21T09:27:08.504Z,35.38
2023-04-21T09:28:08.514Z,35.58
2023-04-21T09:29:08.522Z,35.02
2023-04-21T09:30:08.514Z,35.59
2023-04-21T09:31:08.547Z,35.59
2023-04-21T09:32:10.898Z,35.59
2023-04-21T09:33:20.133Z,35.50
2023-04-21T09:34:08.573Z,35.03
2023-04-21T09:35:08.550Z,34.45
2023-04-21T09:36:08.528Z,35.13
2023-04-21T09:37:08.536Z,34.28
2023-04-21T09:38:08.527Z,33.80
2023-04-21T09:40:08.531Z,32.94
2023-04-21T09:41:08.540Z,33.33
2023-04-21T09:42:08.535Z,32.86
2023-04-21T09:43:08.547Z,32.57
2023-04-21T09:44:08.574Z,31.80
2023-04-21T09:46:08.586Z,31.51
2023-04-21T09:47:08.564Z,31.99
2023-04-21T09:48:08.900Z,32.47
2023-04-21T09:49:08.605Z,32.09
2023-04-21T09:50:12.239Z,33.04
2023-04-21T09:52:18.773Z,32.57
2023-04-21T09:53:08.611Z,32.46
2023-04-21T09:54:15.573Z,34.28
2023-04-21T09:55:08.628Z,34.86
2023-04-21T09:56:08.626Z,34.84
2023-04-21T09:57:08.634Z,34.94
2023-04-21T09:58:08.638Z,34.95
2023-04-21T09:59:08.636Z,34.38
2023-04-21T10:00:08.653Z,33.89
2023-04-21T10:01:08.796Z,33.89
2023-04-21T10:02:08.955Z,33.80
2023-04-21T10:03:08.819Z,33.80
2023-04-21T10:04:08.866Z,33.80
2023-04-21T10:05:08.760Z,33.70
2023-04-21T10:06:08.833Z,34.47
2023-04-21T10:07:08.703Z,34.86
2023-04-21T10:08:08.681Z,34.38
2023-04-21T10:09:08.685Z,34.56
2023-04-21T10:10:08.708Z,34.56
2023-04-21T10:11:08.701Z,34.56
2023-04-21T10:12:09.739Z,34.56
2023-04-21T10:13:08.697Z,34.38
2023-04-21T10:14:08.724Z,34.38
2023-04-21T10:15:08.706Z,34.66
2023-04-21T10:16:08.807Z,34.56
2023-04-21T10:17:08.714Z,31.65
2023-04-21T10:18:08.721Z,31.17
2023-04-21T10:19:08.728Z,31.37
2023-04-21T10:20:08.740Z,31.27
2023-04-21T10:21:08.742Z,31.37
2023-04-21T10:22:08.749Z,31.07
2023-04-21T10:23:08.766Z,31.07
2023-04-21T10:24:08.740Z,31.56
2023-04-21T10:25:08.738Z,30.48
2023-04-21T10:26:08.749Z,31.25
2023-04-21T10:27:08.749Z,30.87
2023-04-21T10:28:08.756Z,31.15
2023-04-21T10:29:08.763Z,32.52
2023-04-21T10:30:08.765Z,31.45
2023-04-21T10:31:08.840Z,31.37
2023-04-21T10:32:09.594Z,31.56
2023-04-21T10:33:08.809Z,32.33
2023-04-21T10:34:08.781Z,32.91
2023-04-21T10:35:08.781Z,32.52
2023-04-21T10:36:08.779Z,32.91
2023-04-21T10:37:08.779Z,31.65
2023-04-21T10:38:08.790Z,31.56
2023-04-21T10:39:08.815Z,31.65
2023-04-21T10:40:08.793Z,32.41
2023-04-21T10:41:08.796Z,31.65
2023-04-21T10:42:08.805Z,33.00
2023-04-21T10:43:08.811Z,31.94
2023-04-21T10:44:08.803Z,30.87
2023-04-21T10:45:08.815Z,31.45
2023-04-21T10:46:08.822Z,31.73
2023-04-21T10:47:08.888Z,31.45
2023-04-21T10:48:08.894Z,30.19
2023-04-21T10:49:08.830Z,31.45
2023-04-21T10:50:08.821Z,30.67
2023-04-21T10:51:08.827Z,31.45
2023-04-21T10:52:08.828Z,31.45
2023-04-21T10:53:08.832Z,30.58
2023-04-21T10:54:08.842Z,30.58
2023-04-21T10:55:08.862Z,31.45
2023-04-21T10:56:08.840Z,30.29
2023-04-21T10:57:08.853Z,30.58
2023-04-21T10:58:08.846Z,31.54
2023-04-21T10:59:08.848Z,31.25
2023-04-21T11:00:08.852Z,31.35
2023-04-21T11:01:08.892Z,30.58
2023-04-21T11:02:08.913Z,30.10
2023-04-21T11:03:09.123Z,30.58
2023-04-21T11:04:09.020Z,30.38
2023-04-21T11:05:08.943Z,30.48
2023-04-21T11:06:08.882Z,30.29
2023-04-21T11:07:08.899Z,30.77
2023-04-21T11:08:08.878Z,30.38
2023-04-21T11:09:08.880Z,30.58
2023-04-21T11:10:08.886Z,30.10
2023-04-21T11:11:08.967Z,30.18
2023-04-21T11:12:08.882Z,30.29
2023-04-21T11:13:08.896Z,30.18
2023-04-21T11:14:08.888Z,30.27
2023-04-21T11:15:08.897Z,30.27
2023-04-21T11:16:08.968Z,30.27
2023-04-21T11:17:08.956Z,30.18
2023-04-21T11:18:08.968Z,30.27
2023-04-21T11:19:08.899Z,29.69
2023-04-21T11:20:08.898Z,29.21
2023-04-21T11:21:08.909Z,29.89
2023-04-21T11:22:08.914Z,29.31
2023-04-21T11:23:08.915Z,29.31
2023-04-21T11:24:08.917Z,29.60
2023-04-21T11:25:08.912Z,29.69
2023-04-21T11:26:08.916Z,30.45
2023-04-21T11:27:08.936Z,30.85
2023-04-21T11:28:08.915Z,30.74
2023-04-21T11:29:08.934Z,31.41
2023-04-21T11:30:08.926Z,31.22
2023-04-21T11:31:08.963Z,31.22
2023-04-21T11:32:08.937Z,31.43
2023-04-21T11:33:08.988Z,31.62
2023-04-21T11:34:08.932Z,31.43
2023-04-21T11:35:08.943Z,31.81
2023-04-21T11:36:08.939Z,32.29
2023-04-21T11:37:08.962Z,32.09
2023-04-21T11:38:08.950Z,32.09
2023-04-21T11:39:08.948Z,31.90
2023-04-21T11:40:08.953Z,31.78
2023-04-21T11:41:08.953Z,31.80
2023-04-21T11:42:08.958Z,31.60
2023-04-21T11:43:08.981Z,31.80
2023-04-21T11:44:08.969Z,32.28
2023-04-21T11:45:08.972Z,32.09
2023-04-21T11:46:09.017Z,31.32
2023-04-21T11:47:09.017Z,31.51
2023-04-21T11:48:09.036Z,31.80
2023-04-21T11:49:08.975Z,31.99
2023-04-21T11:50:08.982Z,31.70
2023-04-21T11:51:08.980Z,32.18
2023-04-21T11:52:08.980Z,32.67
2023-04-21T11:53:08.984Z,32.67
2023-04-21T11:54:08.986Z,33.05
2023-04-21T11:55:08.989Z,32.95
2023-04-21T11:56:08.994Z,33.05
2023-04-21T11:57:09.078Z,33.03
2023-04-21T11:58:08.994Z,33.44
2023-04-21T11:59:09.017Z,32.86
2023-04-21T12:00:09.005Z,32.57
2023-04-21T12:01:09.052Z,32.67
2023-04-21T12:02:09.075Z,32.01
2023-04-21T12:03:09.240Z,31.32
2023-04-21T12:04:09.165Z,31.32
2023-04-21T12:05:09.487Z,31.60
2023-04-21T12:06:09.103Z,32.57
2023-04-21T12:07:09.060Z,33.15
2023-04-21T12:08:09.015Z,33.15
2023-04-21T12:09:09.012Z,33.44
2023-04-21T12:10:09.130Z,33.63
2023-04-21T12:11:09.077Z,33.25
2023-04-21T12:12:09.025Z,33.73
2023-04-21T12:13:09.021Z,33.63
2023-04-21T12:14:09.027Z,33.44
2023-04-21T12:15:09.057Z,33.73
2023-04-21T12:16:09.045Z,33.15
2023-04-21T12:17:09.035Z,32.95
2023-04-21T12:18:09.094Z,32.76
2023-04-21T12:19:09.047Z,33.15
2023-04-21T12:20:09.140Z,33.34
2023-04-21T12:21:09.094Z,33.63
2023-04-21T12:22:09.050Z,33.73
2023-04-21T12:23:09.038Z,33.25
2023-04-21T12:24:09.044Z,32.86
2023-04-21T12:25:09.056Z,32.86
2023-04-21T12:26:09.056Z,33.15
2023-04-21T12:27:09.049Z,32.57
2023-04-21T12:28:09.078Z,33.25
2023-04-21T12:29:09.056Z,32.95
2023-04-21T12:30:09.094Z,33.15
2023-04-21T12:31:09.194Z,33.15
2023-04-21T12:32:09.335Z,33.15
2023-04-21T12:33:09.150Z,33.44
2023-04-21T12:34:09.119Z,33.44
2023-04-21T12:35:09.074Z,33.63
2023-04-21T12:36:09.067Z,33.44
2023-04-21T12:37:09.090Z,33.34
2023-04-21T12:38:09.072Z,32.95
2023-04-21T12:39:09.076Z,33.05
2023-04-21T12:40:09.129Z,32.87
2023-04-21T12:41:09.080Z,32.86
2023-04-21T12:42:09.087Z,33.17
2023-04-21T12:43:09.097Z,32.87
2023-04-21T12:44:09.086Z,32.68
2023-04-21T12:45:09.087Z,32.97
2023-04-21T12:46:09.118Z,33.17
2023-04-21T12:47:09.110Z,33.26
2023-04-21T12:48:09.151Z,32.97
2023-04-21T12:49:09.105Z,33.26
2023-04-21T12:50:09.156Z,32.87
2023-04-21T12:51:09.115Z,32.49
2023-04-21T12:52:09.153Z,32.87
2023-04-21T12:53:09.101Z,33.17
2023-04-21T12:54:09.108Z,32.97
2023-04-21T12:55:09.122Z,32.79
2023-04-21T12:56:09.118Z,32.03